RYR98YP LIRP-EGBB
Flight info
| Callsign | RYR98YP |
|---|---|
| Flight time | 1h 50m |
| Altitude | 38000 |
| Route | SPEZI DCT AOSTA DCT ORSUD DCT MOLUS DCT IBODI DCT GOTED DCT TRO DCT CLM DCT KOPOR DCT ABNUR DCT DIMAL DCT ALESO T420 HEMEL |
| Aircraft | B738/M-SADFGHIJ7LP2RWXY/SB1D1G1 |
Departure
| Time | 2026-04-24 10:44 |
|---|---|
| Airport | Pisa International Airport (LIRP) |
Arrival
| Time | 2026-04-24 12:35 |
|---|---|
| Airport | Birmingham Airport (EGBB) |
| Time | Latitude | Longitude | Altitude | Speed | Heading |
|---|---|---|---|---|---|
| 2026-04-24 10:09 | 43.69763 | 10.39914 | 14 ft | 0 kts | 9° |
| 2026-04-24 10:33 | 43.69757 | 10.39913 | 14 ft | 4 kts | 9° |
| 2026-04-24 10:33 | 43.69730 | 10.39906 | 14 ft | 4 kts | 21° |
| 2026-04-24 10:34 | 43.69709 | 10.39887 | 15 ft | 4 kts | 56° |
| 2026-04-24 10:34 | 43.69702 | 10.39860 | 14 ft | 1 kts | 99° |
| 2026-04-24 10:37 | 43.69702 | 10.39862 | 14 ft | 1 kts | 99° |
| 2026-04-24 10:37 | 43.69697 | 10.39902 | 14 ft | 7 kts | 99° |
| 2026-04-24 10:37 | 43.69667 | 10.39947 | 14 ft | 8 kts | 184° |
| 2026-04-24 10:37 | 43.69614 | 10.39935 | 14 ft | 8 kts | 189° |
| 2026-04-24 10:38 | 43.69563 | 10.39923 | 14 ft | 7 kts | 189° |
| 2026-04-24 10:38 | 43.69507 | 10.39911 | 14 ft | 9 kts | 189° |
| 2026-04-24 10:38 | 43.69430 | 10.39894 | 15 ft | 13 kts | 189° |
| 2026-04-24 10:38 | 43.69334 | 10.39899 | 16 ft | 14 kts | 173° |
| 2026-04-24 10:39 | 43.69237 | 10.39914 | 21 ft | 14 kts | 173° |
| 2026-04-24 10:39 | 43.69145 | 10.39891 | 22 ft | 15 kts | 218° |
| 2026-04-24 10:39 | 43.69054 | 10.39795 | 19 ft | 17 kts | 217° |
| 2026-04-24 10:39 | 43.68953 | 10.39691 | 18 ft | 19 kts | 217° |
| 2026-04-24 10:40 | 43.68841 | 10.39576 | 16 ft | 21 kts | 216° |
| 2026-04-24 10:40 | 43.68727 | 10.39460 | 17 ft | 20 kts | 216° |
| 2026-04-24 10:40 | 43.68618 | 10.39345 | 17 ft | 19 kts | 217° |
| 2026-04-24 10:40 | 43.68511 | 10.39235 | 17 ft | 20 kts | 217° |
| 2026-04-24 10:41 | 43.68397 | 10.39117 | 16 ft | 21 kts | 217° |
| 2026-04-24 10:41 | 43.68275 | 10.38992 | 13 ft | 23 kts | 217° |
| 2026-04-24 10:41 | 43.68145 | 10.38859 | 13 ft | 23 kts | 216° |
| 2026-04-24 10:41 | 43.68020 | 10.38729 | 13 ft | 22 kts | 217° |
| 2026-04-24 10:42 | 43.67898 | 10.38602 | 13 ft | 22 kts | 217° |
| 2026-04-24 10:42 | 43.67779 | 10.38480 | 14 ft | 21 kts | 216° |
| 2026-04-24 10:42 | 43.67664 | 10.38363 | 13 ft | 20 kts | 216° |
| 2026-04-24 10:42 | 43.67597 | 10.38357 | 13 ft | 5 kts | 99° |
| 2026-04-24 10:43 | 43.67584 | 10.38403 | 13 ft | 5 kts | 119° |
| 2026-04-24 10:43 | 43.67557 | 10.38456 | 15 ft | 9 kts | 129° |
| 2026-04-24 10:43 | 43.67526 | 10.38504 | 16 ft | 10 kts | 124° |
| 2026-04-24 10:43 | 43.67555 | 10.38580 | 19 ft | 11 kts | 36° |
| 2026-04-24 10:44 | 43.67723 | 10.38753 | 17 ft | 65 kts | 37° |
| 2026-04-24 10:44 | 43.68298 | 10.39343 | 17 ft | 138 kts | 37° |
| 2026-04-24 10:44 | 43.69174 | 10.40272 | 394 ft | 165 kts | 37° |
| 2026-04-24 10:44 | 43.70090 | 10.41236 | 1259 ft | 168 kts | 36° |
| 2026-04-24 10:45 | 43.71037 | 10.42184 | 2111 ft | 173 kts | 31° |
| 2026-04-24 10:45 | 43.72070 | 10.42983 | 3052 ft | 169 kts | 18° |
| 2026-04-24 10:45 | 43.73229 | 10.43303 | 3874 ft | 171 kts | 0° |
| 2026-04-24 10:45 | 43.74448 | 10.43219 | 4529 ft | 188 kts | 347° |
| 2026-04-24 10:46 | 43.75753 | 10.42585 | 4998 ft | 205 kts | 329° |
| 2026-04-24 10:46 | 43.76917 | 10.41392 | 5578 ft | 214 kts | 313° |
| 2026-04-24 10:46 | 43.77775 | 10.39695 | 6371 ft | 218 kts | 295° |
| 2026-04-24 10:46 | 43.78203 | 10.37671 | 7208 ft | 223 kts | 281° |
| 2026-04-24 10:47 | 43.78428 | 10.35513 | 7935 ft | 233 kts | 276° |
| 2026-04-24 10:47 | 43.78472 | 10.33122 | 8223 ft | 264 kts | 271° |
| 2026-04-24 10:47 | 43.78434 | 10.30488 | 8792 ft | 280 kts | 271° |
| 2026-04-24 10:47 | 43.78383 | 10.27760 | 9638 ft | 286 kts | 271° |
| 2026-04-24 10:48 | 43.78335 | 10.24986 | 10489 ft | 292 kts | 271° |
| 2026-04-24 10:48 | 43.78295 | 10.22064 | 10799 ft | 317 kts | 271° |
| 2026-04-24 10:48 | 43.78258 | 10.18887 | 11067 ft | 341 kts | 271° |
| 2026-04-24 10:48 | 43.78222 | 10.15558 | 11696 ft | 351 kts | 271° |
| 2026-04-24 10:49 | 43.78187 | 10.12158 | 12498 ft | 356 kts | 271° |
| 2026-04-24 10:49 | 43.78153 | 10.08712 | 13294 ft | 361 kts | 271° |
| 2026-04-24 10:49 | 43.78455 | 10.05268 | 14025 ft | 363 kts | 291° |
| 2026-04-24 10:49 | 43.79753 | 10.02308 | 14703 ft | 362 kts | 317° |
| 2026-04-24 10:50 | 43.81664 | 10.00038 | 15406 ft | 365 kts | 322° |
| 2026-04-24 10:50 | 43.83606 | 9.97720 | 16043 ft | 372 kts | 321° |
| 2026-04-24 10:50 | 43.85564 | 9.95325 | 16690 ft | 379 kts | 321° |
| 2026-04-24 10:50 | 43.87564 | 9.92909 | 17350 ft | 384 kts | 323° |
| 2026-04-24 10:51 | 43.89644 | 9.90546 | 18012 ft | 389 kts | 324° |
| 2026-04-24 10:51 | 43.91775 | 9.88184 | 18629 ft | 395 kts | 324° |
| 2026-04-24 10:51 | 43.93935 | 9.85799 | 19244 ft | 398 kts | 324° |
| 2026-04-24 10:51 | 43.96104 | 9.83394 | 19912 ft | 400 kts | 324° |
| 2026-04-24 10:52 | 43.98284 | 9.80964 | 20517 ft | 404 kts | 324° |
| 2026-04-24 10:52 | 44.00475 | 9.78508 | 21096 ft | 407 kts | 324° |
| 2026-04-24 10:52 | 44.02688 | 9.76018 | 21684 ft | 411 kts | 324° |
| 2026-04-24 10:52 | 44.04887 | 9.73536 | 22269 ft | 414 kts | 324° |
| 2026-04-24 10:53 | 44.07130 | 9.70998 | 22860 ft | 417 kts | 324° |
| 2026-04-24 10:53 | 44.09390 | 9.68439 | 23437 ft | 420 kts | 324° |
| 2026-04-24 10:53 | 44.11665 | 9.65857 | 23959 ft | 424 kts | 324° |
| 2026-04-24 10:53 | 44.13957 | 9.63254 | 24424 ft | 427 kts | 324° |
| 2026-04-24 10:54 | 44.16267 | 9.60629 | 24859 ft | 431 kts | 324° |
| 2026-04-24 10:54 | 44.18591 | 9.57983 | 25343 ft | 432 kts | 324° |
| 2026-04-24 10:54 | 44.20925 | 9.55323 | 25816 ft | 435 kts | 324° |
| 2026-04-24 10:54 | 44.23273 | 9.52645 | 26269 ft | 437 kts | 324° |
| 2026-04-24 10:55 | 44.25634 | 9.49950 | 26705 ft | 440 kts | 324° |
| 2026-04-24 10:55 | 44.28011 | 9.47233 | 27112 ft | 443 kts | 324° |
| 2026-04-24 10:55 | 44.30404 | 9.44496 | 27483 ft | 447 kts | 324° |
| 2026-04-24 10:55 | 44.32820 | 9.41730 | 27850 ft | 451 kts | 324° |
| 2026-04-24 10:56 | 44.35243 | 9.38952 | 28288 ft | 452 kts | 324° |
| 2026-04-24 10:56 | 44.37682 | 9.36152 | 28684 ft | 455 kts | 324° |
| 2026-04-24 10:56 | 44.40133 | 9.33334 | 29089 ft | 457 kts | 324° |
| 2026-04-24 10:56 | 44.42596 | 9.30501 | 29508 ft | 459 kts | 323° |
| 2026-04-24 10:57 | 44.45071 | 9.27650 | 29849 ft | 463 kts | 323° |
| 2026-04-24 10:57 | 44.47563 | 9.24778 | 30183 ft | 465 kts | 323° |
| 2026-04-24 10:57 | 44.50066 | 9.21888 | 30483 ft | 467 kts | 323° |
| 2026-04-24 10:57 | 44.52579 | 9.18984 | 30799 ft | 469 kts | 323° |
| 2026-04-24 10:58 | 44.55098 | 9.16068 | 31118 ft | 470 kts | 323° |
| 2026-04-24 10:58 | 44.57624 | 9.13142 | 31466 ft | 471 kts | 323° |
| 2026-04-24 10:58 | 44.60144 | 9.10218 | 31893 ft | 469 kts | 323° |
| 2026-04-24 10:58 | 44.62655 | 9.07301 | 32276 ft | 469 kts | 323° |
| 2026-04-24 10:59 | 44.65172 | 9.04376 | 32560 ft | 470 kts | 323° |
| 2026-04-24 10:59 | 44.67649 | 9.01493 | 32947 ft | 469 kts | 323° |
| 2026-04-24 10:59 | 44.70152 | 8.98576 | 33394 ft | 466 kts | 323° |
| 2026-04-24 10:59 | 44.72645 | 8.95667 | 33770 ft | 465 kts | 323° |
| 2026-04-24 11:00 | 44.75137 | 8.92757 | 34092 ft | 466 kts | 323° |
| 2026-04-24 11:00 | 44.77629 | 8.89843 | 34378 ft | 466 kts | 323° |
| 2026-04-24 11:00 | 44.80117 | 8.86931 | 34713 ft | 464 kts | 323° |
| 2026-04-24 11:00 | 44.82594 | 8.84028 | 35049 ft | 462 kts | 323° |
| 2026-04-24 11:01 | 44.85064 | 8.81130 | 35362 ft | 462 kts | 323° |
| 2026-04-24 11:01 | 44.87531 | 8.78234 | 35661 ft | 461 kts | 322° |
| 2026-04-24 11:01 | 44.89996 | 8.75335 | 35882 ft | 462 kts | 322° |
| 2026-04-24 11:01 | 44.92467 | 8.72426 | 36104 ft | 463 kts | 322° |
| 2026-04-24 11:02 | 44.94937 | 8.69515 | 36416 ft | 462 kts | 322° |
| 2026-04-24 11:02 | 44.97392 | 8.66618 | 36769 ft | 460 kts | 322° |
| 2026-04-24 11:02 | 44.99844 | 8.63720 | 37077 ft | 458 kts | 322° |
| 2026-04-24 11:02 | 45.02290 | 8.60828 | 37357 ft | 458 kts | 322° |
| 2026-04-24 11:03 | 45.04729 | 8.57939 | 37609 ft | 458 kts | 322° |
| 2026-04-24 11:03 | 45.07171 | 8.55045 | 37886 ft | 457 kts | 322° |
| 2026-04-24 11:03 | 45.09607 | 8.52154 | 38136 ft | 457 kts | 322° |
| 2026-04-24 11:04 | 45.14516 | 8.46320 | 38111 ft | 462 kts | 321° |
| 2026-04-24 11:04 | 45.19413 | 8.40483 | 38100 ft | 457 kts | 321° |
| 2026-04-24 11:05 | 45.24266 | 8.34685 | 38106 ft | 455 kts | 321° |
| 2026-04-24 11:05 | 45.29092 | 8.28907 | 38105 ft | 453 kts | 321° |
| 2026-04-24 11:06 | 45.33902 | 8.23136 | 38110 ft | 452 kts | 321° |
| 2026-04-24 11:06 | 45.38709 | 8.17355 | 38111 ft | 453 kts | 321° |
| 2026-04-24 11:07 | 45.45902 | 8.08681 | 38119 ft | 455 kts | 321° |
| 2026-04-24 11:07 | 45.50744 | 8.02822 | 38121 ft | 458 kts | 321° |
| 2026-04-24 11:08 | 45.55610 | 7.96923 | 38135 ft | 460 kts | 321° |
| 2026-04-24 11:08 | 45.60529 | 7.90944 | 38123 ft | 462 kts | 320° |
| 2026-04-24 11:09 | 45.65425 | 7.84978 | 38123 ft | 463 kts | 320° |
| 2026-04-24 11:09 | 45.70330 | 7.78988 | 38129 ft | 464 kts | 320° |
| 2026-04-24 11:10 | 45.75236 | 7.72982 | 38140 ft | 464 kts | 320° |
| 2026-04-24 11:10 | 45.80143 | 7.66961 | 38139 ft | 464 kts | 320° |
| 2026-04-24 11:11 | 45.85014 | 7.60969 | 38144 ft | 464 kts | 320° |
| 2026-04-24 11:11 | 45.89908 | 7.54935 | 38144 ft | 464 kts | 320° |
| 2026-04-24 11:12 | 45.94818 | 7.48867 | 38154 ft | 462 kts | 320° |
| 2026-04-24 11:12 | 45.99685 | 7.42837 | 38143 ft | 461 kts | 320° |
| 2026-04-24 11:13 | 46.04504 | 7.36852 | 38150 ft | 460 kts | 320° |
| 2026-04-24 11:13 | 46.09337 | 7.30835 | 38149 ft | 458 kts | 320° |
| 2026-04-24 11:14 | 46.14144 | 7.24836 | 38136 ft | 457 kts | 319° |
| 2026-04-24 11:14 | 46.18937 | 7.18839 | 38174 ft | 456 kts | 319° |
| 2026-04-24 11:15 | 46.23733 | 7.12826 | 38164 ft | 457 kts | 319° |
| 2026-04-24 11:15 | 46.28537 | 7.06787 | 38163 ft | 458 kts | 319° |
| 2026-04-24 11:16 | 46.33353 | 7.00720 | 38159 ft | 460 kts | 319° |
| 2026-04-24 11:16 | 46.38189 | 6.94612 | 38159 ft | 462 kts | 319° |
| 2026-04-24 11:17 | 46.43032 | 6.88480 | 38178 ft | 463 kts | 319° |
| 2026-04-24 11:17 | 46.47875 | 6.82333 | 38187 ft | 464 kts | 318° |
| 2026-04-24 11:18 | 46.52732 | 6.76152 | 38191 ft | 464 kts | 318° |
| 2026-04-24 11:18 | 46.57592 | 6.69953 | 38177 ft | 465 kts | 318° |
| 2026-04-24 11:19 | 46.62453 | 6.63737 | 38201 ft | 465 kts | 318° |
| 2026-04-24 11:19 | 46.67309 | 6.57512 | 38205 ft | 465 kts | 318° |
| 2026-04-24 11:20 | 46.72125 | 6.51323 | 38190 ft | 464 kts | 318° |
| 2026-04-24 11:20 | 46.76998 | 6.45045 | 38184 ft | 464 kts | 317° |
| 2026-04-24 11:21 | 46.81795 | 6.38850 | 38181 ft | 464 kts | 317° |
| 2026-04-24 11:21 | 46.86620 | 6.32602 | 38186 ft | 463 kts | 317° |
| 2026-04-24 11:22 | 46.91440 | 6.26346 | 38170 ft | 463 kts | 317° |
| 2026-04-24 11:22 | 46.96253 | 6.20082 | 38167 ft | 463 kts | 317° |
| 2026-04-24 11:23 | 47.01063 | 6.13808 | 38174 ft | 463 kts | 317° |
| 2026-04-24 11:23 | 47.05866 | 6.07526 | 38167 ft | 463 kts | 317° |
| 2026-04-24 11:24 | 47.10672 | 6.01225 | 38177 ft | 463 kts | 317° |
| 2026-04-24 11:24 | 47.15481 | 5.94903 | 38165 ft | 464 kts | 317° |
| 2026-04-24 11:25 | 47.20293 | 5.88562 | 38177 ft | 465 kts | 317° |
| 2026-04-24 11:25 | 47.25107 | 5.82202 | 38171 ft | 465 kts | 316° |
| 2026-04-24 11:26 | 47.29923 | 5.75823 | 38174 ft | 466 kts | 316° |
| 2026-04-24 11:26 | 47.34743 | 5.69422 | 38176 ft | 467 kts | 316° |
| 2026-04-24 11:27 | 47.39564 | 5.63003 | 38170 ft | 467 kts | 316° |
| 2026-04-24 11:27 | 47.44376 | 5.56579 | 38168 ft | 467 kts | 316° |
| 2026-04-24 11:28 | 47.49189 | 5.50140 | 38182 ft | 467 kts | 316° |
| 2026-04-24 11:28 | 47.53787 | 5.43401 | 38174 ft | 464 kts | 306° |
| 2026-04-24 11:29 | 47.57610 | 5.35724 | 38180 ft | 463 kts | 304° |
| 2026-04-24 11:29 | 47.61369 | 5.27978 | 38185 ft | 463 kts | 304° |
| 2026-04-24 11:30 | 47.65155 | 5.20254 | 38183 ft | 463 kts | 304° |
| 2026-04-24 11:30 | 47.68954 | 5.12553 | 38187 ft | 463 kts | 304° |
| 2026-04-24 11:31 | 47.72756 | 5.04845 | 38188 ft | 463 kts | 304° |
| 2026-04-24 11:31 | 47.75913 | 4.98426 | 38180 ft | 463 kts | 304° |
| 2026-04-24 11:32 | 47.79704 | 4.90697 | 38184 ft | 463 kts | 304° |
| 2026-04-24 11:32 | 47.84101 | 4.81703 | 38181 ft | 462 kts | 304° |
| 2026-04-24 11:33 | 47.87263 | 4.75215 | 38186 ft | 462 kts | 304° |
| 2026-04-24 11:33 | 47.91031 | 4.67464 | 38191 ft | 462 kts | 304° |
| 2026-04-24 11:34 | 47.94788 | 4.59715 | 38192 ft | 461 kts | 304° |
| 2026-04-24 11:34 | 47.98542 | 4.51949 | 38195 ft | 461 kts | 304° |
| 2026-04-24 11:35 | 48.02289 | 4.44176 | 38197 ft | 461 kts | 304° |
| 2026-04-24 11:35 | 48.06029 | 4.36394 | 38200 ft | 461 kts | 304° |
| 2026-04-24 11:36 | 48.09762 | 4.28605 | 38203 ft | 461 kts | 303° |
| 2026-04-24 11:36 | 48.13487 | 4.20810 | 38215 ft | 460 kts | 304° |
| 2026-04-24 11:37 | 48.17202 | 4.13014 | 38212 ft | 459 kts | 303° |
| 2026-04-24 11:37 | 48.20902 | 4.05228 | 38211 ft | 459 kts | 303° |
| 2026-04-24 11:38 | 48.24597 | 3.97436 | 38209 ft | 458 kts | 304° |
| 2026-04-24 11:38 | 48.28769 | 3.90211 | 38219 ft | 459 kts | 312° |
| 2026-04-24 11:39 | 48.33232 | 3.83364 | 38218 ft | 458 kts | 313° |
| 2026-04-24 11:39 | 48.37649 | 3.76538 | 38209 ft | 458 kts | 312° |
| 2026-04-24 11:40 | 48.42044 | 3.69615 | 38212 ft | 457 kts | 311° |
| 2026-04-24 11:40 | 48.46419 | 3.62661 | 38218 ft | 457 kts | 311° |
| 2026-04-24 11:41 | 48.50784 | 3.55699 | 38212 ft | 457 kts | 311° |
| 2026-04-24 11:41 | 48.55142 | 3.48733 | 38219 ft | 456 kts | 311° |
| 2026-04-24 11:42 | 48.59493 | 3.41761 | 38221 ft | 456 kts | 311° |
| 2026-04-24 11:42 | 48.63837 | 3.34785 | 38216 ft | 456 kts | 311° |
| 2026-04-24 11:43 | 48.68177 | 3.27794 | 38217 ft | 456 kts | 311° |
| 2026-04-24 11:43 | 48.72511 | 3.20793 | 38224 ft | 456 kts | 311° |
| 2026-04-24 11:44 | 48.76841 | 3.13780 | 38220 ft | 456 kts | 311° |
| 2026-04-24 11:44 | 48.81168 | 3.06757 | 38225 ft | 456 kts | 311° |
| 2026-04-24 11:45 | 48.85774 | 3.00153 | 38230 ft | 458 kts | 324° |
| 2026-04-24 11:45 | 48.91264 | 2.95240 | 38239 ft | 459 kts | 329° |
| 2026-04-24 11:46 | 48.96844 | 2.90501 | 38240 ft | 459 kts | 329° |
| 2026-04-24 11:46 | 49.02404 | 2.85695 | 38230 ft | 460 kts | 329° |
| 2026-04-24 11:47 | 49.07947 | 2.80831 | 38245 ft | 459 kts | 328° |
| 2026-04-24 11:47 | 49.13483 | 2.75945 | 38235 ft | 460 kts | 328° |
| 2026-04-24 11:48 | 49.19013 | 2.71052 | 38241 ft | 459 kts | 328° |
| 2026-04-24 11:48 | 49.24532 | 2.66160 | 38240 ft | 459 kts | 328° |
| 2026-04-24 11:49 | 49.30050 | 2.61256 | 38241 ft | 458 kts | 328° |
| 2026-04-24 11:49 | 49.35546 | 2.56359 | 38249 ft | 456 kts | 328° |
| 2026-04-24 11:50 | 49.40984 | 2.51500 | 38253 ft | 455 kts | 328° |
| 2026-04-24 11:50 | 49.46440 | 2.46613 | 38257 ft | 453 kts | 328° |
| 2026-04-24 11:51 | 49.51908 | 2.41708 | 38261 ft | 452 kts | 328° |
| 2026-04-24 11:51 | 49.57359 | 2.37042 | 38256 ft | 451 kts | 329° |
| 2026-04-24 11:52 | 49.62863 | 2.32436 | 38259 ft | 449 kts | 329° |
| 2026-04-24 11:52 | 49.68346 | 2.27814 | 38257 ft | 449 kts | 329° |
| 2026-04-24 11:53 | 49.73810 | 2.23171 | 38271 ft | 447 kts | 329° |
| 2026-04-24 11:53 | 49.79253 | 2.18526 | 38250 ft | 447 kts | 329° |
| 2026-04-24 11:54 | 49.84684 | 2.13881 | 38254 ft | 445 kts | 329° |
| 2026-04-24 11:54 | 49.90095 | 2.09239 | 38264 ft | 444 kts | 329° |
| 2026-04-24 11:55 | 49.95495 | 2.04596 | 38277 ft | 443 kts | 329° |
| 2026-04-24 11:55 | 50.00886 | 1.99948 | 38270 ft | 443 kts | 329° |
| 2026-04-24 11:56 | 50.06269 | 1.95295 | 38284 ft | 442 kts | 329° |
| 2026-04-24 11:56 | 50.11647 | 1.90635 | 38273 ft | 443 kts | 329° |
| 2026-04-24 11:57 | 50.16979 | 1.85838 | 38270 ft | 442 kts | 322° |
| 2026-04-24 11:57 | 50.21511 | 1.79476 | 38289 ft | 439 kts | 313° |
| 2026-04-24 11:58 | 50.25830 | 1.72730 | 38284 ft | 439 kts | 313° |
| 2026-04-24 11:58 | 50.30175 | 1.66006 | 38285 ft | 440 kts | 313° |
| 2026-04-24 11:59 | 50.34544 | 1.59301 | 38297 ft | 440 kts | 313° |
| 2026-04-24 11:59 | 50.38916 | 1.52591 | 38290 ft | 440 kts | 313° |
| 2026-04-24 12:00 | 50.43282 | 1.45868 | 38305 ft | 440 kts | 313° |
| 2026-04-24 12:00 | 50.47643 | 1.39134 | 38294 ft | 440 kts | 313° |
| 2026-04-24 12:01 | 50.51909 | 1.32289 | 38295 ft | 438 kts | 310° |
| 2026-04-24 12:01 | 50.56003 | 1.25208 | 38305 ft | 437 kts | 309° |
| 2026-04-24 12:02 | 50.60179 | 1.18257 | 38311 ft | 437 kts | 312° |
| 2026-04-24 12:02 | 50.64494 | 1.11521 | 38340 ft | 436 kts | 312° |
| 2026-04-24 12:03 | 50.68798 | 1.04785 | 38332 ft | 436 kts | 312° |
| 2026-04-24 12:03 | 50.73072 | 0.98017 | 38339 ft | 435 kts | 311° |
| 2026-04-24 12:04 | 50.77323 | 0.91247 | 38328 ft | 434 kts | 311° |
| 2026-04-24 12:04 | 50.81569 | 0.84467 | 38331 ft | 434 kts | 311° |
| 2026-04-24 12:05 | 50.85780 | 0.77728 | 38331 ft | 433 kts | 311° |
| 2026-04-24 12:05 | 50.90013 | 0.70932 | 38336 ft | 433 kts | 311° |
| 2026-04-24 12:06 | 50.94244 | 0.64122 | 38278 ft | 435 kts | 311° |
| 2026-04-24 12:06 | 50.96373 | 0.60687 | 37969 ft | 439 kts | 311° |
| 2026-04-24 12:06 | 50.98456 | 0.57160 | 37694 ft | 434 kts | 307° |
| 2026-04-24 12:07 | 51.00292 | 0.53382 | 37426 ft | 431 kts | 303° |
| 2026-04-24 12:07 | 51.02017 | 0.49507 | 37172 ft | 431 kts | 302° |
| 2026-04-24 12:07 | 51.03714 | 0.45587 | 36912 ft | 431 kts | 301° |
| 2026-04-24 12:07 | 51.05399 | 0.41652 | 36657 ft | 431 kts | 301° |
| 2026-04-24 12:08 | 51.07076 | 0.37710 | 36401 ft | 431 kts | 301° |
| 2026-04-24 12:08 | 51.08747 | 0.33767 | 35857 ft | 430 kts | 301° |
| 2026-04-24 12:08 | 51.10413 | 0.29824 | 35304 ft | 429 kts | 301° |
| 2026-04-24 12:08 | 51.12078 | 0.25875 | 34703 ft | 429 kts | 301° |
| 2026-04-24 12:09 | 51.13732 | 0.21947 | 34303 ft | 425 kts | 301° |
| 2026-04-24 12:09 | 51.15368 | 0.18059 | 33845 ft | 420 kts | 301° |
| 2026-04-24 12:09 | 51.16984 | 0.14222 | 33450 ft | 414 kts | 301° |
| 2026-04-24 12:09 | 51.18578 | 0.10438 | 33085 ft | 408 kts | 301° |
| 2026-04-24 12:10 | 51.20150 | 0.06710 | 32753 ft | 402 kts | 301° |
| 2026-04-24 12:10 | 51.21843 | 0.03183 | 32291 ft | 402 kts | 311° |
| 2026-04-24 12:10 | 51.23991 | 0.00312 | 31896 ft | 404 kts | 322° |
| 2026-04-24 12:11 | 51.28989 | -0.03765 | 31077 ft | 402 kts | 332° |
| 2026-04-24 12:11 | 51.31538 | -0.05586 | 30668 ft | 400 kts | 331° |
| 2026-04-24 12:11 | 51.34067 | -0.07409 | 30282 ft | 397 kts | 330° |
| 2026-04-24 12:11 | 51.36566 | -0.09225 | 29813 ft | 394 kts | 330° |
| 2026-04-24 12:12 | 51.39046 | -0.11040 | 29399 ft | 389 kts | 330° |
| 2026-04-24 12:12 | 51.41495 | -0.12841 | 28995 ft | 385 kts | 330° |
| 2026-04-24 12:12 | 51.43915 | -0.14625 | 28589 ft | 381 kts | 330° |
| 2026-04-24 12:12 | 51.46315 | -0.16398 | 28189 ft | 378 kts | 330° |
| 2026-04-24 12:13 | 51.48693 | -0.18159 | 27782 ft | 375 kts | 330° |
| 2026-04-24 12:13 | 51.51053 | -0.19907 | 27392 ft | 372 kts | 330° |
| 2026-04-24 12:13 | 51.53398 | -0.21647 | 26989 ft | 370 kts | 330° |
| 2026-04-24 12:13 | 51.55731 | -0.23380 | 26596 ft | 369 kts | 330° |
| 2026-04-24 12:14 | 51.58057 | -0.25111 | 26217 ft | 368 kts | 331° |
| 2026-04-24 12:14 | 51.60384 | -0.26844 | 25850 ft | 372 kts | 331° |
| 2026-04-24 12:14 | 51.62769 | -0.28627 | 25468 ft | 385 kts | 331° |
| 2026-04-24 12:14 | 51.65220 | -0.30458 | 25061 ft | 389 kts | 331° |
| 2026-04-24 12:15 | 51.67671 | -0.32285 | 24615 ft | 387 kts | 332° |
| 2026-04-24 12:15 | 51.70110 | -0.34105 | 24217 ft | 385 kts | 332° |
| 2026-04-24 12:15 | 51.72540 | -0.35922 | 23763 ft | 384 kts | 332° |
| 2026-04-24 12:15 | 51.74954 | -0.37730 | 23294 ft | 382 kts | 332° |
| 2026-04-24 12:16 | 51.77356 | -0.39531 | 22858 ft | 379 kts | 332° |
| 2026-04-24 12:16 | 51.79737 | -0.41319 | 22416 ft | 376 kts | 332° |
| 2026-04-24 12:16 | 51.82048 | -0.43246 | 22024 ft | 373 kts | 328° |
| 2026-04-24 12:16 | 51.84269 | -0.45389 | 21662 ft | 371 kts | 326° |
| 2026-04-24 12:17 | 51.86457 | -0.47582 | 21289 ft | 369 kts | 326° |
| 2026-04-24 12:17 | 51.87906 | -0.49032 | 21052 ft | 369 kts | 326° |
| 2026-04-24 12:17 | 51.90846 | -0.51932 | 20563 ft | 371 kts | 327° |
| 2026-04-24 12:17 | 51.92307 | -0.53361 | 20317 ft | 371 kts | 327° |
| 2026-04-24 12:18 | 51.94520 | -0.55518 | 19951 ft | 370 kts | 327° |
| 2026-04-24 12:18 | 51.97435 | -0.58361 | 19457 ft | 368 kts | 327° |
| 2026-04-24 12:18 | 51.99624 | -0.60500 | 19095 ft | 367 kts | 327° |
| 2026-04-24 12:18 | 52.01807 | -0.62637 | 18729 ft | 366 kts | 327° |
| 2026-04-24 12:19 | 52.03983 | -0.64770 | 18339 ft | 365 kts | 327° |
| 2026-04-24 12:19 | 52.05413 | -0.66173 | 18071 ft | 364 kts | 327° |
| 2026-04-24 12:19 | 52.07534 | -0.68256 | 17692 ft | 362 kts | 328° |
| 2026-04-24 12:19 | 52.09678 | -0.70364 | 17324 ft | 358 kts | 328° |
| 2026-04-24 12:20 | 52.11798 | -0.72451 | 16961 ft | 354 kts | 328° |
| 2026-04-24 12:20 | 52.13902 | -0.74524 | 16518 ft | 353 kts | 328° |
| 2026-04-24 12:20 | 52.15995 | -0.76589 | 16151 ft | 350 kts | 328° |
| 2026-04-24 12:20 | 52.18065 | -0.78633 | 15781 ft | 347 kts | 328° |
| 2026-04-24 12:21 | 52.20122 | -0.80667 | 15425 ft | 344 kts | 328° |
| 2026-04-24 12:21 | 52.22163 | -0.82686 | 15073 ft | 342 kts | 328° |
| 2026-04-24 12:21 | 52.24139 | -0.84812 | 14721 ft | 338 kts | 320° |
| 2026-04-24 12:21 | 52.25779 | -0.87527 | 14382 ft | 334 kts | 308° |
| 2026-04-24 12:22 | 52.27198 | -0.90505 | 14026 ft | 332 kts | 306° |
| 2026-04-24 12:22 | 52.28575 | -0.93522 | 13659 ft | 329 kts | 306° |
| 2026-04-24 12:22 | 52.29925 | -0.96512 | 13312 ft | 326 kts | 306° |
| 2026-04-24 12:22 | 52.31256 | -0.99488 | 12966 ft | 323 kts | 306° |
| 2026-04-24 12:23 | 52.32569 | -1.02447 | 12650 ft | 321 kts | 306° |
| 2026-04-24 12:23 | 52.33859 | -1.05370 | 12315 ft | 322 kts | 306° |
| 2026-04-24 12:23 | 52.35183 | -1.08384 | 11988 ft | 323 kts | 306° |
| 2026-04-24 12:23 | 52.36489 | -1.11370 | 11661 ft | 322 kts | 306° |
| 2026-04-24 12:24 | 52.37788 | -1.14356 | 11340 ft | 322 kts | 306° |
| 2026-04-24 12:24 | 52.39081 | -1.17344 | 11003 ft | 321 kts | 306° |
| 2026-04-24 12:24 | 52.40346 | -1.20284 | 10681 ft | 319 kts | 306° |
| 2026-04-24 12:24 | 52.41612 | -1.23241 | 10356 ft | 316 kts | 306° |
| 2026-04-24 12:25 | 52.42852 | -1.26161 | 10182 ft | 306 kts | 305° |
| 2026-04-24 12:25 | 52.44080 | -1.29056 | 9735 ft | 307 kts | 305° |
| 2026-04-24 12:25 | 52.45276 | -1.31866 | 9670 ft | 296 kts | 305° |
| 2026-04-24 12:25 | 52.46440 | -1.34609 | 9398 ft | 292 kts | 305° |
| 2026-04-24 12:26 | 52.47599 | -1.37341 | 9094 ft | 290 kts | 305° |
| 2026-04-24 12:26 | 52.48745 | -1.40040 | 8830 ft | 288 kts | 305° |
| 2026-04-24 12:26 | 52.49885 | -1.42728 | 8542 ft | 287 kts | 306° |
| 2026-04-24 12:26 | 52.51028 | -1.45439 | 8092 ft | 291 kts | 305° |
| 2026-04-24 12:27 | 52.52176 | -1.48163 | 7797 ft | 288 kts | 305° |
| 2026-04-24 12:27 | 52.53311 | -1.50859 | 7523 ft | 286 kts | 305° |
| 2026-04-24 12:27 | 52.54441 | -1.53516 | 7322 ft | 281 kts | 305° |
| 2026-04-24 12:27 | 52.55564 | -1.56148 | 6973 ft | 283 kts | 305° |
| 2026-04-24 12:28 | 52.56692 | -1.58784 | 6784 ft | 278 kts | 305° |
| 2026-04-24 12:28 | 52.57785 | -1.61332 | 6785 ft | 269 kts | 305° |
| 2026-04-24 12:28 | 52.58840 | -1.63805 | 6706 ft | 260 kts | 305° |
| 2026-04-24 12:28 | 52.59864 | -1.66196 | 6642 ft | 251 kts | 306° |
| 2026-04-24 12:29 | 52.60861 | -1.68530 | 6456 ft | 248 kts | 305° |
| 2026-04-24 12:29 | 52.61853 | -1.70869 | 6127 ft | 251 kts | 305° |
| 2026-04-24 12:29 | 52.62846 | -1.73216 | 5971 ft | 248 kts | 305° |
| 2026-04-24 12:29 | 52.63825 | -1.75529 | 5818 ft | 244 kts | 305° |
| 2026-04-24 12:30 | 52.64627 | -1.77986 | 5538 ft | 247 kts | 283° |
| 2026-04-24 12:30 | 52.64617 | -1.80766 | 5310 ft | 244 kts | 253° |
| 2026-04-24 12:30 | 52.64034 | -1.83389 | 5116 ft | 243 kts | 248° |
| 2026-04-24 12:30 | 52.63401 | -1.85951 | 4888 ft | 241 kts | 245° |
| 2026-04-24 12:31 | 52.62734 | -1.88485 | 4606 ft | 242 kts | 245° |
| 2026-04-24 12:31 | 52.61931 | -1.90898 | 4380 ft | 240 kts | 224° |
| 2026-04-24 12:31 | 52.60530 | -1.92168 | 4147 ft | 227 kts | 185° |
| 2026-04-24 12:31 | 52.59032 | -1.91715 | 3700 ft | 221 kts | 145° |
| 2026-04-24 12:32 | 52.57999 | -1.89926 | 3313 ft | 217 kts | 127° |
| 2026-04-24 12:32 | 52.56972 | -1.88103 | 2944 ft | 215 kts | 137° |
| 2026-04-24 12:32 | 52.55870 | -1.86493 | 2624 ft | 207 kts | 140° |
| 2026-04-24 12:32 | 52.54710 | -1.85155 | 2352 ft | 200 kts | 145° |
| 2026-04-24 12:33 | 52.53580 | -1.83925 | 2089 ft | 191 kts | 144° |
| 2026-04-24 12:33 | 52.52500 | -1.82729 | 1810 ft | 182 kts | 143° |
| 2026-04-24 12:33 | 52.51499 | -1.81612 | 1585 ft | 168 kts | 143° |
| 2026-04-24 12:33 | 52.50580 | -1.80590 | 1377 ft | 153 kts | 144° |
| 2026-04-24 12:34 | 52.49729 | -1.79640 | 1161 ft | 145 kts | 143° |
| 2026-04-24 12:34 | 52.48869 | -1.78688 | 957 ft | 153 kts | 143° |
| 2026-04-24 12:34 | 52.47991 | -1.77706 | 754 ft | 151 kts | 142° |
| 2026-04-24 12:34 | 52.47145 | -1.76757 | 533 ft | 148 kts | 143° |
| 2026-04-24 12:35 | 52.46307 | -1.75831 | 354 ft | 143 kts | 141° |
| 2026-04-24 12:35 | 52.45548 | -1.75016 | 329 ft | 107 kts | 153° |
| 2026-04-24 12:35 | 52.45078 | -1.74463 | 329 ft | 36 kts | 144° |
| 2026-04-24 12:35 | 52.44952 | -1.74298 | 325 ft | 16 kts | 114° |
| 2026-04-24 12:36 | 52.44967 | -1.74115 | 325 ft | 16 kts | 76° |
| 2026-04-24 12:36 | 52.44998 | -1.73936 | 321 ft | 17 kts | 65° |
| 2026-04-24 12:36 | 52.45069 | -1.73784 | 321 ft | 17 kts | 24° |
| 2026-04-24 12:36 | 52.45175 | -1.73857 | 322 ft | 18 kts | 325° |
| 2026-04-24 12:37 | 52.45278 | -1.73964 | 322 ft | 15 kts | 341° |
| 2026-04-24 12:37 | 52.45356 | -1.73871 | 322 ft | 15 kts | 56° |
| 2026-04-24 12:37 | 52.45420 | -1.73721 | 321 ft | 17 kts | 56° |
| 2026-04-24 12:37 | 52.45484 | -1.73564 | 322 ft | 15 kts | 56° |
| 2026-04-24 12:38 | 52.45500 | -1.73477 | 322 ft | 6 kts | 124° |
| 2026-04-24 12:38 | 52.45480 | -1.73450 | 322 ft | 0 kts | 144° |
| 2026-04-24 12:38 | 52.45465 | -1.73433 | 322 ft | 5 kts | 146° |
| 2026-04-24 12:39 | 52.45452 | -1.73419 | 322 ft | 0 kts | 146° |
| 2026-04-24 12:41 | 52.45453 | -1.73419 | 322 ft | 0 kts | 146° |
| 2026-04-24 12:42 | 52.45453 | -1.73420 | 323 ft | 0 kts | 146° |